sensor_id;sensor_type;location;lat;lon;timestamp;P1;durP1;ratioP1;P2;durP2;ratioP2
15931;SDS011;8065;49.520;11.284;2022-10-31T00:00:44;13.33;;;7.00;;
15931;SDS011;8065;49.520;11.284;2022-10-31T00:03:10;12.47;;;7.40;;
15931;SDS011;8065;49.520;11.284;2022-10-31T00:05:39;9.40;;;6.93;;
15931;SDS011;8065;49.520;11.284;2022-10-31T00:08:06;9.90;;;6.80;;
15931;SDS011;8065;49.520;11.284;2022-10-31T00:10:34;8.00;;;6.63;;
15931;SDS011;8065;49.520;11.284;2022-10-31T00:13:03;10.73;;;6.87;;
15931;SDS011;8065;49.520;11.284;2022-10-31T00:15:29;9.73;;;6.70;;
15931;SDS011;8065;49.520;11.284;2022-10-31T00:17:56;12.13;;;6.63;;
15931;SDS011;8065;49.520;11.284;2022-10-31T00:20:24;10.20;;;6.73;;
15931;SDS011;8065;49.520;11.284;2022-10-31T00:22:50;10.47;;;7.60;;
15931;SDS011;8065;49.520;11.284;2022-10-31T00:25:17;11.47;;;6.67;;
15931;SDS011;8065;49.520;11.284;2022-10-31T00:27:46;10.37;;;6.50;;
15931;SDS011;8065;49.520;11.284;2022-10-31T00:30:13;10.73;;;6.57;;
15931;SDS011;8065;49.520;11.284;2022-10-31T00:32:39;10.50;;;6.77;;
15931;SDS011;8065;49.520;11.284;2022-10-31T00:35:06;13.10;;;7.00;;
15931;SDS011;8065;49.520;11.284;2022-10-31T00:37:33;12.10;;;5.90;;
15931;SDS011;8065;49.520;11.284;2022-10-31T00:39:59;10.83;;;6.70;;
15931;SDS011;8065;49.520;11.284;2022-10-31T00:42:25;13.37;;;6.73;;
15931;SDS011;8065;49.520;11.284;2022-10-31T00:44:53;12.13;;;6.87;;
15931;SDS011;8065;49.520;11.284;2022-10-31T00:47:20;9.47;;;6.20;;
15931;SDS011;8065;49.520;11.284;2022-10-31T00:49:46;9.90;;;6.03;;
15931;SDS011;8065;49.520;11.284;2022-10-31T00:52:13;8.57;;;6.50;;
15931;SDS011;8065;49.520;11.284;2022-10-31T00:54:39;8.77;;;6.50;;
15931;SDS011;8065;49.520;11.284;2022-10-31T00:57:05;9.53;;;6.27;;
15931;SDS011;8065;49.520;11.284;2022-10-31T00:59:32;9.90;;;6.63;;
15931;SDS011;8065;49.520;11.284;2022-10-31T01:01:59;11.23;;;7.00;;
15931;SDS011;8065;49.520;11.284;2022-10-31T01:04:26;10.23;;;6.53;;
15931;SDS011;8065;49.520;11.284;2022-10-31T01:06:52;8.60;;;6.47;;
15931;SDS011;8065;49.520;11.284;2022-10-31T01:09:19;9.30;;;6.93;;
15931;SDS011;8065;49.520;11.284;2022-10-31T01:11:45;8.77;;;6.10;;
15931;SDS011;8065;49.520;11.284;2022-10-31T01:14:12;11.70;;;6.17;;
15931;SDS011;8065;49.520;11.284;2022-10-31T01:16:39;7.13;;;6.17;;
15931;SDS011;8065;49.520;11.284;2022-10-31T01:19:07;9.30;;;6.27;;
15931;SDS011;8065;49.520;11.284;2022-10-31T01:21:33;10.50;;;6.43;;
15931;SDS011;8065;49.520;11.284;2022-10-31T01:24:00;11.87;;;6.73;;
15931;SDS011;8065;49.520;11.284;2022-10-31T01:26:28;11.87;;;6.77;;
15931;SDS011;8065;49.520;11.284;2022-10-31T01:28:56;11.97;;;7.30;;
15931;SDS011;8065;49.520;11.284;2022-10-31T01:31:25;10.97;;;7.53;;
15931;SDS011;8065;49.520;11.284;2022-10-31T01:33:53;15.50;;;6.77;;
15931;SDS011;8065;49.520;11.284;2022-10-31T01:36:21;8.67;;;6.03;;
15931;SDS011;8065;49.520;11.284;2022-10-31T01:38:50;10.83;;;6.80;;
15931;SDS011;8065;49.520;11.284;2022-10-31T01:41:19;11.23;;;6.33;;
15931;SDS011;8065;49.520;11.284;2022-10-31T01:43:48;11.53;;;6.67;;
15931;SDS011;8065;49.520;11.284;2022-10-31T01:46:18;8.47;;;6.03;;
15931;SDS011;8065;49.520;11.284;2022-10-31T01:48:48;10.20;;;6.10;;
15931;SDS011;8065;49.520;11.284;2022-10-31T01:51:15;7.13;;;5.20;;
15931;SDS011;8065;49.520;11.284;2022-10-31T01:53:45;10.37;;;6.20;;
15931;SDS011;8065;49.520;11.284;2022-10-31T01:56:13;7.80;;;5.47;;
15931;SDS011;8065;49.520;11.284;2022-10-31T01:58:41;7.67;;;6.20;;
15931;SDS011;8065;49.520;11.284;2022-10-31T02:01:08;13.20;;;6.63;;
15931;SDS011;8065;49.520;11.284;2022-10-31T02:03:35;9.60;;;6.07;;
15931;SDS011;8065;49.520;11.284;2022-10-31T02:06:02;8.90;;;5.97;;
15931;SDS011;8065;49.520;11.284;2022-10-31T02:08:33;9.67;;;6.20;;
15931;SDS011;8065;49.520;11.284;2022-10-31T02:11:03;9.13;;;6.20;;
15931;SDS011;8065;49.520;11.284;2022-10-31T02:13:30;9.87;;;6.43;;
15931;SDS011;8065;49.520;11.284;2022-10-31T02:15:57;7.30;;;5.50;;
15931;SDS011;8065;49.520;11.284;2022-10-31T02:18:25;11.87;;;5.77;;
15931;SDS011;8065;49.520;11.284;2022-10-31T02:20:57;9.87;;;6.03;;
15931;SDS011;8065;49.520;11.284;2022-10-31T02:26:41;9.47;;;6.17;;
15931;SDS011;8065;49.520;11.284;2022-10-31T02:29:31;9.70;;;5.60;;
15931;SDS011;8065;49.520;11.284;2022-10-31T02:32:24;9.87;;;5.30;;
15931;SDS011;8065;49.520;11.284;2022-10-31T02:34:57;7.80;;;5.83;;
15931;SDS011;8065;49.520;11.284;2022-10-31T02:37:31;7.47;;;5.40;;
15931;SDS011;8065;49.520;11.284;2022-10-31T02:40:04;7.70;;;6.10;;
15931;SDS011;8065;49.520;11.284;2022-10-31T02:42:38;7.43;;;5.30;;
15931;SDS011;8065;49.520;11.284;2022-10-31T02:45:13;8.63;;;5.57;;
15931;SDS011;8065;49.520;11.284;2022-10-31T02:47:47;10.00;;;5.73;;
15931;SDS011;8065;49.520;11.284;2022-10-31T02:50:17;10.40;;;6.60;;
15931;SDS011;8065;49.520;11.284;2022-10-31T02:52:49;9.07;;;5.97;;
15931;SDS011;8065;49.520;11.284;2022-10-31T02:58:17;6.43;;;5.03;;
15931;SDS011;8065;49.520;11.284;2022-10-31T03:00:52;7.83;;;5.37;;
15931;SDS011;8065;49.520;11.284;2022-10-31T03:03:44;11.13;;;6.20;;
15931;SDS011;8065;49.520;11.284;2022-10-31T03:06:23;9.17;;;5.83;;
15931;SDS011;8065;49.520;11.284;2022-10-31T03:09:00;8.07;;;5.70;;
15931;SDS011;8065;49.520;11.284;2022-10-31T03:11:32;8.17;;;5.67;;
15931;SDS011;8065;49.520;11.284;2022-10-31T03:14:10;7.33;;;5.43;;
15931;SDS011;8065;49.520;11.284;2022-10-31T03:16:45;7.90;;;5.90;;
15931;SDS011;8065;49.520;11.284;2022-10-31T03:19:15;8.63;;;6.00;;
15931;SDS011;8065;49.520;11.284;2022-10-31T03:21:45;10.17;;;5.67;;
15931;SDS011;8065;49.520;11.284;2022-10-31T03:24:13;8.60;;;6.10;;
15931;SDS011;8065;49.520;11.284;2022-10-31T03:26:41;8.93;;;5.60;;
15931;SDS011;8065;49.520;11.284;2022-10-31T03:29:11;9.20;;;5.77;;
15931;SDS011;8065;49.520;11.284;2022-10-31T03:31:43;7.90;;;5.30;;
15931;SDS011;8065;49.520;11.284;2022-10-31T03:34:15;7.60;;;5.27;;
15931;SDS011;8065;49.520;11.284;2022-10-31T03:36:44;8.73;;;5.70;;
15931;SDS011;8065;49.520;11.284;2022-10-31T03:39:13;6.70;;;5.20;;
15931;SDS011;8065;49.520;11.284;2022-10-31T03:41:42;9.50;;;5.43;;
15931;SDS011;8065;49.520;11.284;2022-10-31T03:44:13;8.33;;;5.23;;
15931;SDS011;8065;49.520;11.284;2022-10-31T03:46:45;6.67;;;5.13;;
15931;SDS011;8065;49.520;11.284;2022-10-31T03:49:11;7.83;;;5.60;;
15931;SDS011;8065;49.520;11.284;2022-10-31T03:51:42;5.40;;;4.90;;
15931;SDS011;8065;49.520;11.284;2022-10-31T03:54:15;7.63;;;5.30;;
15931;SDS011;8065;49.520;11.284;2022-10-31T03:56:50;7.43;;;5.20;;
15931;SDS011;8065;49.520;11.284;2022-10-31T03:59:20;8.00;;;5.00;;
15931;SDS011;8065;49.520;11.284;2022-10-31T04:01:50;7.37;;;5.17;;
15931;SDS011;8065;49.520;11.284;2022-10-31T04:04:19;8.20;;;5.43;;
15931;SDS011;8065;49.520;11.284;2022-10-31T04:06:48;9.03;;;5.23;;
15931;SDS011;8065;49.520;11.284;2022-10-31T04:09:17;8.37;;;5.97;;
15931;SDS011;8065;49.520;11.284;2022-10-31T04:11:46;7.27;;;4.70;;
15931;SDS011;8065;49.520;11.284;2022-10-31T04:14:15;8.23;;;5.20;;
15931;SDS011;8065;49.520;11.284;2022-10-31T04:16:42;14.60;;;5.10;;
15931;SDS011;8065;49.520;11.284;2022-10-31T04:19:10;7.50;;;5.10;;
15931;SDS011;8065;49.520;11.284;2022-10-31T04:21:37;8.57;;;5.30;;
15931;SDS011;8065;49.520;11.284;2022-10-31T04:24:05;8.77;;;5.30;;
15931;SDS011;8065;49.520;11.284;2022-10-31T04:26:32;9.30;;;5.53;;
15931;SDS011;8065;49.520;11.284;2022-10-31T04:28:58;6.87;;;5.00;;
15931;SDS011;8065;49.520;11.284;2022-10-31T04:31:25;6.23;;;4.70;;
15931;SDS011;8065;49.520;11.284;2022-10-31T04:33:51;6.57;;;4.80;;
15931;SDS011;8065;49.520;11.284;2022-10-31T04:36:18;6.83;;;4.97;;
15931;SDS011;8065;49.520;11.284;2022-10-31T04:38:44;7.70;;;5.17;;
15931;SDS011;8065;49.520;11.284;2022-10-31T04:41:12;7.93;;;5.33;;
15931;SDS011;8065;49.520;11.284;2022-10-31T04:43:38;8.77;;;5.30;;
15931;SDS011;8065;49.520;11.284;2022-10-31T04:46:05;7.83;;;5.40;;
15931;SDS011;8065;49.520;11.284;2022-10-31T04:48:31;6.30;;;4.40;;
15931;SDS011;8065;49.520;11.284;2022-10-31T04:50:58;8.10;;;4.70;;
15931;SDS011;8065;49.520;11.284;2022-10-31T04:53:25;9.27;;;5.27;;
15931;SDS011;8065;49.520;11.284;2022-10-31T04:55:51;9.90;;;5.33;;
15931;SDS011;8065;49.520;11.284;2022-10-31T04:58:19;7.73;;;5.40;;
15931;SDS011;8065;49.520;11.284;2022-10-31T05:00:45;6.63;;;4.60;;
15931;SDS011;8065;49.520;11.284;2022-10-31T05:03:12;10.43;;;5.37;;
15931;SDS011;8065;49.520;11.284;2022-10-31T05:05:38;6.27;;;4.93;;
15931;SDS011;8065;49.520;11.284;2022-10-31T05:08:05;7.03;;;5.63;;
15931;SDS011;8065;49.520;11.284;2022-10-31T05:10:31;8.37;;;5.50;;
15931;SDS011;8065;49.520;11.284;2022-10-31T05:12:58;13.07;;;5.73;;
15931;SDS011;8065;49.520;11.284;2022-10-31T05:15:27;9.87;;;5.93;;
15931;SDS011;8065;49.520;11.284;2022-10-31T05:17:54;8.90;;;5.37;;
15931;SDS011;8065;49.520;11.284;2022-10-31T05:20:22;9.57;;;4.93;;
15931;SDS011;8065;49.520;11.284;2022-10-31T05:22:52;8.37;;;5.30;;
15931;SDS011;8065;49.520;11.284;2022-10-31T05:25:21;10.90;;;6.07;;
15931;SDS011;8065;49.520;11.284;2022-10-31T05:27:49;11.70;;;6.53;;
15931;SDS011;8065;49.520;11.284;2022-10-31T05:30:18;10.67;;;6.10;;
15931;SDS011;8065;49.520;11.284;2022-10-31T05:32:48;8.73;;;6.03;;
15931;SDS011;8065;49.520;11.284;2022-10-31T05:35:16;11.37;;;6.93;;
15931;SDS011;8065;49.520;11.284;2022-10-31T05:37:45;10.27;;;6.57;;
15931;SDS011;8065;49.520;11.284;2022-10-31T05:40:12;9.87;;;6.47;;
15931;SDS011;8065;49.520;11.284;2022-10-31T05:42:40;6.40;;;5.80;;
15931;SDS011;8065;49.520;11.284;2022-10-31T05:45:08;7.87;;;5.97;;
15931;SDS011;8065;49.520;11.284;2022-10-31T05:47:35;11.73;;;6.23;;
15931;SDS011;8065;49.520;11.284;2022-10-31T05:50:03;9.63;;;5.97;;
15931;SDS011;8065;49.520;11.284;2022-10-31T05:52:30;6.63;;;5.00;;
15931;SDS011;8065;49.520;11.284;2022-10-31T05:54:57;8.83;;;5.50;;
15931;SDS011;8065;49.520;11.284;2022-10-31T05:57:23;8.90;;;5.83;;
15931;SDS011;8065;49.520;11.284;2022-10-31T05:59:50;7.17;;;5.47;;
15931;SDS011;8065;49.520;11.284;2022-10-31T06:02:17;7.57;;;5.20;;
15931;SDS011;8065;49.520;11.284;2022-10-31T06:04:44;7.50;;;4.73;;
15931;SDS011;8065;49.520;11.284;2022-10-31T06:07:12;11.27;;;4.93;;
15931;SDS011;8065;49.520;11.284;2022-10-31T06:09:38;7.87;;;5.23;;
15931;SDS011;8065;49.520;11.284;2022-10-31T06:12:05;7.23;;;5.57;;
15931;SDS011;8065;49.520;11.284;2022-10-31T06:14:31;9.53;;;5.13;;
15931;SDS011;8065;49.520;11.284;2022-10-31T06:16:58;10.00;;;5.03;;
15931;SDS011;8065;49.520;11.284;2022-10-31T06:19:24;7.07;;;5.00;;
15931;SDS011;8065;49.520;11.284;2022-10-31T06:21:51;6.23;;;5.10;;
15931;SDS011;8065;49.520;11.284;2022-10-31T06:24:18;6.70;;;4.80;;
15931;SDS011;8065;49.520;11.284;2022-10-31T06:26:45;8.60;;;5.10;;
15931;SDS011;8065;49.520;11.284;2022-10-31T06:29:11;9.07;;;4.77;;
15931;SDS011;8065;49.520;11.284;2022-10-31T06:31:38;7.30;;;4.87;;
15931;SDS011;8065;49.520;11.284;2022-10-31T06:34:04;9.93;;;5.47;;
15931;SDS011;8065;49.520;11.284;2022-10-31T06:36:31;6.90;;;5.20;;
15931;SDS011;8065;49.520;11.284;2022-10-31T06:38:57;9.73;;;5.60;;
15931;SDS011;8065;49.520;11.284;2022-10-31T06:41:25;8.83;;;5.00;;
15931;SDS011;8065;49.520;11.284;2022-10-31T06:43:52;8.33;;;5.80;;
15931;SDS011;8065;49.520;11.284;2022-10-31T06:46:18;8.60;;;5.53;;
15931;SDS011;8065;49.520;11.284;2022-10-31T06:48:44;6.23;;;5.50;;
15931;SDS011;8065;49.520;11.284;2022-10-31T06:51:11;6.57;;;5.33;;
15931;SDS011;8065;49.520;11.284;2022-10-31T06:53:37;7.70;;;5.13;;
15931;SDS011;8065;49.520;11.284;2022-10-31T06:56:04;9.90;;;5.63;;
15931;SDS011;8065;49.520;11.284;2022-10-31T06:58:32;7.63;;;5.70;;
15931;SDS011;8065;49.520;11.284;2022-10-31T07:00:59;8.17;;;5.97;;
15931;SDS011;8065;49.520;11.284;2022-10-31T07:03:26;6.20;;;5.60;;
15931;SDS011;8065;49.520;11.284;2022-10-31T07:05:54;12.53;;;6.83;;
15931;SDS011;8065;49.520;11.284;2022-10-31T07:08:21;9.13;;;5.67;;
15931;SDS011;8065;49.520;11.284;2022-10-31T07:10:50;6.97;;;5.60;;
15931;SDS011;8065;49.520;11.284;2022-10-31T07:13:18;6.53;;;5.50;;
15931;SDS011;8065;49.520;11.284;2022-10-31T07:15:51;8.07;;;6.17;;
15931;SDS011;8065;49.520;11.284;2022-10-31T07:18:18;9.83;;;6.00;;
15931;SDS011;8065;49.520;11.284;2022-10-31T07:20:44;7.00;;;5.73;;
15931;SDS011;8065;49.520;11.284;2022-10-31T07:23:11;7.63;;;5.63;;
15931;SDS011;8065;49.520;11.284;2022-10-31T07:25:37;8.43;;;5.70;;
15931;SDS011;8065;49.520;11.284;2022-10-31T07:28:04;7.23;;;5.87;;
15931;SDS011;8065;49.520;11.284;2022-10-31T07:30:30;9.83;;;5.50;;
15931;SDS011;8065;49.520;11.284;2022-10-31T07:32:58;7.80;;;5.47;;
15931;SDS011;8065;49.520;11.284;2022-10-31T07:35:25;7.40;;;6.23;;
15931;SDS011;8065;49.520;11.284;2022-10-31T07:37:53;8.33;;;5.87;;
15931;SDS011;8065;49.520;11.284;2022-10-31T07:40:20;10.40;;;6.10;;
15931;SDS011;8065;49.520;11.284;2022-10-31T07:42:48;8.70;;;6.37;;
15931;SDS011;8065;49.520;11.284;2022-10-31T07:45:16;10.33;;;5.60;;
15931;SDS011;8065;49.520;11.284;2022-10-31T07:47:44;8.80;;;5.23;;
15931;SDS011;8065;49.520;11.284;2022-10-31T07:50:14;7.60;;;6.03;;
15931;SDS011;8065;49.520;11.284;2022-10-31T07:52:42;9.67;;;5.57;;
15931;SDS011;8065;49.520;11.284;2022-10-31T07:55:09;8.87;;;5.50;;
15931;SDS011;8065;49.520;11.284;2022-10-31T07:57:36;8.80;;;5.40;;
15931;SDS011;8065;49.520;11.284;2022-10-31T08:00:03;7.23;;;5.37;;
15931;SDS011;8065;49.520;11.284;2022-10-31T08:02:30;8.17;;;5.27;;
15931;SDS011;8065;49.520;11.284;2022-10-31T08:04:56;7.73;;;5.50;;
15931;SDS011;8065;49.520;11.284;2022-10-31T08:07:24;6.93;;;5.13;;
15931;SDS011;8065;49.520;11.284;2022-10-31T08:09:50;7.43;;;5.07;;
15931;SDS011;8065;49.520;11.284;2022-10-31T08:12:17;7.47;;;5.53;;
15931;SDS011;8065;49.520;11.284;2022-10-31T08:14:43;7.67;;;5.13;;
15931;SDS011;8065;49.520;11.284;2022-10-31T08:17:10;7.13;;;5.47;;
15931;SDS011;8065;49.520;11.284;2022-10-31T08:19:36;7.83;;;5.37;;
15931;SDS011;8065;49.520;11.284;2022-10-31T08:22:03;8.70;;;5.53;;
15931;SDS011;8065;49.520;11.284;2022-10-31T08:24:31;10.57;;;5.37;;
15931;SDS011;8065;49.520;11.284;2022-10-31T08:26:57;6.70;;;5.30;;
15931;SDS011;8065;49.520;11.284;2022-10-31T08:29:23;9.47;;;5.70;;
15931;SDS011;8065;49.520;11.284;2022-10-31T08:31:50;8.57;;;5.80;;
15931;SDS011;8065;49.520;11.284;2022-10-31T08:34:16;6.40;;;5.43;;
15931;SDS011;8065;49.520;11.284;2022-10-31T08:36:43;10.20;;;5.83;;
15931;SDS011;8065;49.520;11.284;2022-10-31T08:39:11;8.77;;;5.37;;
15931;SDS011;8065;49.520;11.284;2022-10-31T08:41:38;9.97;;;5.47;;
15931;SDS011;8065;49.520;11.284;2022-10-31T08:44:05;9.40;;;5.63;;
15931;SDS011;8065;49.520;11.284;2022-10-31T08:46:31;8.60;;;5.00;;
15931;SDS011;8065;49.520;11.284;2022-10-31T08:48:58;8.37;;;5.13;;
15931;SDS011;8065;49.520;11.284;2022-10-31T08:51:24;8.43;;;5.63;;
15931;SDS011;8065;49.520;11.284;2022-10-31T08:53:51;10.87;;;5.63;;
15931;SDS011;8065;49.520;11.284;2022-10-31T08:56:17;9.17;;;5.80;;
15931;SDS011;8065;49.520;11.284;2022-10-31T08:58:45;9.43;;;5.47;;
15931;SDS011;8065;49.520;11.284;2022-10-31T09:01:11;8.13;;;5.10;;
15931;SDS011;8065;49.520;11.284;2022-10-31T09:03:38;8.47;;;4.90;;
15931;SDS011;8065;49.520;11.284;2022-10-31T09:06:04;8.47;;;5.13;;
15931;SDS011;8065;49.520;11.284;2022-10-31T09:08:34;8.00;;;5.20;;
15931;SDS011;8065;49.520;11.284;2022-10-31T09:11:01;10.93;;;5.70;;
15931;SDS011;8065;49.520;11.284;2022-10-31T09:13:29;9.33;;;5.97;;
15931;SDS011;8065;49.520;11.284;2022-10-31T09:15:57;10.80;;;5.50;;
15931;SDS011;8065;49.520;11.284;2022-10-31T09:18:24;9.60;;;5.80;;
15931;SDS011;8065;49.520;11.284;2022-10-31T09:20:53;8.63;;;5.13;;
15931;SDS011;8065;49.520;11.284;2022-10-31T09:23:20;8.97;;;5.63;;
15931;SDS011;8065;49.520;11.284;2022-10-31T09:25:47;11.00;;;5.93;;
15931;SDS011;8065;49.520;11.284;2022-10-31T09:28:16;9.27;;;5.60;;
15931;SDS011;8065;49.520;11.284;2022-10-31T09:30:45;7.07;;;5.40;;
15931;SDS011;8065;49.520;11.284;2022-10-31T09:33:14;9.23;;;5.53;;
15931;SDS011;8065;49.520;11.284;2022-10-31T09:35:40;9.50;;;5.27;;
15931;SDS011;8065;49.520;11.284;2022-10-31T09:38:08;10.37;;;5.77;;
15931;SDS011;8065;49.520;11.284;2022-10-31T09:40:37;8.17;;;5.03;;
15931;SDS011;8065;49.520;11.284;2022-10-31T09:43:12;8.47;;;5.10;;
15931;SDS011;8065;49.520;11.284;2022-10-31T09:45:43;9.07;;;4.77;;
15931;SDS011;8065;49.520;11.284;2022-10-31T09:48:27;12.33;;;5.33;;
15931;SDS011;8065;49.520;11.284;2022-10-31T09:51:09;9.17;;;5.07;;
15931;SDS011;8065;49.520;11.284;2022-10-31T09:53:43;11.13;;;5.90;;
15931;SDS011;8065;49.520;11.284;2022-10-31T09:56:12;10.63;;;5.70;;
15931;SDS011;8065;49.520;11.284;2022-10-31T09:58:42;8.97;;;5.70;;
15931;SDS011;8065;49.520;11.284;2022-10-31T10:01:16;6.73;;;5.33;;
15931;SDS011;8065;49.520;11.284;2022-10-31T10:03:53;10.90;;;5.20;;
15931;SDS011;8065;49.520;11.284;2022-10-31T10:06:24;10.40;;;5.73;;
15931;SDS011;8065;49.520;11.284;2022-10-31T10:08:54;8.37;;;4.63;;
15931;SDS011;8065;49.520;11.284;2022-10-31T10:11:25;5.03;;;4.50;;
15931;SDS011;8065;49.520;11.284;2022-10-31T10:14:03;9.13;;;5.17;;
15931;SDS011;8065;49.520;11.284;2022-10-31T10:16:41;7.23;;;5.43;;
15931;SDS011;8065;49.520;11.284;2022-10-31T10:19:23;10.50;;;5.17;;
15931;SDS011;8065;49.520;11.284;2022-10-31T10:22:01;10.30;;;4.87;;
15931;SDS011;8065;49.520;11.284;2022-10-31T10:24:42;10.43;;;5.10;;
15931;SDS011;8065;49.520;11.284;2022-10-31T10:27:25;11.23;;;5.03;;
15931;SDS011;8065;49.520;11.284;2022-10-31T10:30:02;7.77;;;5.00;;
15931;SDS011;8065;49.520;11.284;2022-10-31T10:32:38;9.47;;;4.37;;
15931;SDS011;8065;49.520;11.284;2022-10-31T10:35:11;11.27;;;5.03;;
15931;SDS011;8065;49.520;11.284;2022-10-31T10:37:47;9.23;;;4.90;;
15931;SDS011;8065;49.520;11.284;2022-10-31T10:40:17;10.50;;;4.43;;
15931;SDS011;8065;49.520;11.284;2022-10-31T10:45:38;9.23;;;5.00;;
15931;SDS011;8065;49.520;11.284;2022-10-31T10:48:26;7.27;;;4.20;;
15931;SDS011;8065;49.520;11.284;2022-10-31T10:51:00;6.87;;;3.50;;
15931;SDS011;8065;49.520;11.284;2022-10-31T10:53:34;8.33;;;4.20;;
15931;SDS011;8065;49.520;11.284;2022-10-31T10:56:26;8.43;;;4.30;;
15931;SDS011;8065;49.520;11.284;2022-10-31T10:59:02;10.20;;;3.93;;
15931;SDS011;8065;49.520;11.284;2022-10-31T11:01:29;6.07;;;3.40;;
15931;SDS011;8065;49.520;11.284;2022-10-31T11:03:56;11.13;;;3.90;;
15931;SDS011;8065;49.520;11.284;2022-10-31T11:06:24;5.77;;;3.33;;
15931;SDS011;8065;49.520;11.284;2022-10-31T11:08:51;8.40;;;3.87;;
15931;SDS011;8065;49.520;11.284;2022-10-31T11:11:25;7.53;;;3.70;;
15931;SDS011;8065;49.520;11.284;2022-10-31T11:13:57;9.07;;;3.67;;
15931;SDS011;8065;49.520;11.284;2022-10-31T11:16:30;9.37;;;3.70;;
15931;SDS011;8065;49.520;11.284;2022-10-31T11:19:06;6.97;;;3.67;;
15931;SDS011;8065;49.520;11.284;2022-10-31T11:21:41;7.57;;;3.70;;
15931;SDS011;8065;49.520;11.284;2022-10-31T11:24:12;8.97;;;3.93;;
15931;SDS011;8065;49.520;11.284;2022-10-31T11:26:41;7.13;;;3.40;;
15931;SDS011;8065;49.520;11.284;2022-10-31T11:29:12;10.00;;;3.77;;
15931;SDS011;8065;49.520;11.284;2022-10-31T11:31:41;8.40;;;3.83;;
15931;SDS011;8065;49.520;11.284;2022-10-31T11:34:12;6.23;;;3.40;;
15931;SDS011;8065;49.520;11.284;2022-10-31T11:36:44;6.83;;;3.40;;
15931;SDS011;8065;49.520;11.284;2022-10-31T11:39:14;6.70;;;3.87;;
15931;SDS011;8065;49.520;11.284;2022-10-31T11:41:44;5.87;;;3.50;;
15931;SDS011;8065;49.520;11.284;2022-10-31T11:44:13;8.43;;;3.50;;
15931;SDS011;8065;49.520;11.284;2022-10-31T11:46:44;11.50;;;3.70;;
15931;SDS011;8065;49.520;11.284;2022-10-31T11:49:13;8.40;;;3.37;;
15931;SDS011;8065;49.520;11.284;2022-10-31T11:51:46;6.80;;;3.20;;
15931;SDS011;8065;49.520;11.284;2022-10-31T11:54:18;6.30;;;3.70;;
15931;SDS011;8065;49.520;11.284;2022-10-31T11:56:51;7.13;;;3.53;;
15931;SDS011;8065;49.520;11.284;2022-10-31T11:59:20;8.93;;;3.40;;
15931;SDS011;8065;49.520;11.284;2022-10-31T12:01:52;7.87;;;3.30;;
15931;SDS011;8065;49.520;11.284;2022-10-31T12:04:22;5.93;;;3.40;;
15931;SDS011;8065;49.520;11.284;2022-10-31T12:06:55;7.80;;;3.17;;
15931;SDS011;8065;49.520;11.284;2022-10-31T12:09:22;7.30;;;3.40;;
15931;SDS011;8065;49.520;11.284;2022-10-31T12:11:53;7.40;;;3.30;;
15931;SDS011;8065;49.520;11.284;2022-10-31T12:14:32;7.23;;;3.40;;
15931;SDS011;8065;49.520;11.284;2022-10-31T12:17:05;5.80;;;3.03;;
15931;SDS011;8065;49.520;11.284;2022-10-31T12:19:39;5.80;;;3.00;;
15931;SDS011;8065;49.520;11.284;2022-10-31T12:22:16;7.23;;;2.83;;
15931;SDS011;8065;49.520;11.284;2022-10-31T12:25:02;5.50;;;2.53;;
15931;SDS011;8065;49.520;11.284;2022-10-31T12:27:40;8.20;;;2.60;;
15931;SDS011;8065;49.520;11.284;2022-10-31T12:30:20;6.37;;;2.50;;
15931;SDS011;8065;49.520;11.284;2022-10-31T12:32:54;4.83;;;2.70;;
15931;SDS011;8065;49.520;11.284;2022-10-31T12:35:44;4.90;;;2.43;;
15931;SDS011;8065;49.520;11.284;2022-10-31T12:38:27;4.10;;;2.30;;
15931;SDS011;8065;49.520;11.284;2022-10-31T12:41:09;7.03;;;2.40;;
15931;SDS011;8065;49.520;11.284;2022-10-31T12:43:45;5.23;;;2.50;;
15931;SDS011;8065;49.520;11.284;2022-10-31T12:46:19;8.00;;;2.20;;
15931;SDS011;8065;49.520;11.284;2022-10-31T12:49:09;8.20;;;2.23;;
15931;SDS011;8065;49.520;11.284;2022-10-31T12:51:49;6.00;;;2.37;;
15931;SDS011;8065;49.520;11.284;2022-10-31T12:54:30;7.50;;;2.37;;
15931;SDS011;8065;49.520;11.284;2022-10-31T12:57:08;5.97;;;2.50;;
15931;SDS011;8065;49.520;11.284;2022-10-31T12:59:44;6.30;;;2.37;;
15931;SDS011;8065;49.520;11.284;2022-10-31T13:02:16;7.27;;;2.50;;
15931;SDS011;8065;49.520;11.284;2022-10-31T13:04:48;5.60;;;2.30;;
15931;SDS011;8065;49.520;11.284;2022-10-31T13:07:19;5.63;;;2.50;;
15931;SDS011;8065;49.520;11.284;2022-10-31T13:09:53;4.83;;;2.27;;
15931;SDS011;8065;49.520;11.284;2022-10-31T13:12:23;5.53;;;2.30;;
15931;SDS011;8065;49.520;11.284;2022-10-31T13:14:51;7.20;;;2.07;;
15931;SDS011;8065;49.520;11.284;2022-10-31T13:17:21;5.77;;;2.13;;
15931;SDS011;8065;49.520;11.284;2022-10-31T13:19:53;9.70;;;2.60;;
15931;SDS011;8065;49.520;11.284;2022-10-31T13:22:29;7.33;;;2.60;;
15931;SDS011;8065;49.520;11.284;2022-10-31T13:25:03;3.67;;;2.00;;
15931;SDS011;8065;49.520;11.284;2022-10-31T13:27:39;7.03;;;2.20;;
15931;SDS011;8065;49.520;11.284;2022-10-31T13:30:12;7.07;;;2.10;;
15931;SDS011;8065;49.520;11.284;2022-10-31T13:32:42;8.33;;;2.30;;
15931;SDS011;8065;49.520;11.284;2022-10-31T13:35:14;6.13;;;2.20;;
15931;SDS011;8065;49.520;11.284;2022-10-31T13:37:48;4.93;;;2.30;;
15931;SDS011;8065;49.520;11.284;2022-10-31T13:40:27;7.17;;;2.57;;
15931;SDS011;8065;49.520;11.284;2022-10-31T13:43:01;7.10;;;2.60;;
15931;SDS011;8065;49.520;11.284;2022-10-31T13:45:33;5.90;;;2.20;;
15931;SDS011;8065;49.520;11.284;2022-10-31T13:48:00;5.93;;;2.27;;
15931;SDS011;8065;49.520;11.284;2022-10-31T13:50:28;4.63;;;2.17;;
15931;SDS011;8065;49.520;11.284;2022-10-31T13:53:12;4.77;;;2.40;;
15931;SDS011;8065;49.520;11.284;2022-10-31T13:55:42;8.67;;;2.60;;
15931;SDS011;8065;49.520;11.284;2022-10-31T13:58:20;6.03;;;2.57;;
15931;SDS011;8065;49.520;11.284;2022-10-31T14:00:57;3.27;;;2.33;;
15931;SDS011;8065;49.520;11.284;2022-10-31T14:03:25;5.90;;;2.47;;
15931;SDS011;8065;49.520;11.284;2022-10-31T14:05:53;6.90;;;2.70;;
15931;SDS011;8065;49.520;11.284;2022-10-31T14:08:22;9.30;;;2.87;;
15931;SDS011;8065;49.520;11.284;2022-10-31T14:10:52;5.17;;;2.60;;
15931;SDS011;8065;49.520;11.284;2022-10-31T14:13:20;6.63;;;3.10;;
15931;SDS011;8065;49.520;11.284;2022-10-31T14:15:52;7.97;;;2.80;;
15931;SDS011;8065;49.520;11.284;2022-10-31T14:18:22;5.43;;;2.70;;
15931;SDS011;8065;49.520;11.284;2022-10-31T14:20:51;11.40;;;2.67;;
15931;SDS011;8065;49.520;11.284;2022-10-31T14:23:34;6.20;;;3.10;;
15931;SDS011;8065;49.520;11.284;2022-10-31T14:26:30;6.07;;;2.90;;
15931;SDS011;8065;49.520;11.284;2022-10-31T14:28:59;5.83;;;2.67;;
15931;SDS011;8065;49.520;11.284;2022-10-31T14:31:31;6.13;;;2.67;;
15931;SDS011;8065;49.520;11.284;2022-10-31T14:34:03;7.27;;;2.73;;
15931;SDS011;8065;49.520;11.284;2022-10-31T14:36:46;9.90;;;3.13;;
15931;SDS011;8065;49.520;11.284;2022-10-31T14:39:24;9.10;;;2.83;;
15931;SDS011;8065;49.520;11.284;2022-10-31T14:42:00;8.73;;;3.03;;
15931;SDS011;8065;49.520;11.284;2022-10-31T14:47:35;5.93;;;2.70;;
15931;SDS011;8065;49.520;11.284;2022-10-31T14:50:22;8.93;;;3.30;;
15931;SDS011;8065;49.520;11.284;2022-10-31T14:52:56;7.20;;;2.67;;
15931;SDS011;8065;49.520;11.284;2022-10-31T14:55:25;5.97;;;2.70;;
15931;SDS011;8065;49.520;11.284;2022-10-31T14:57:54;8.03;;;3.33;;
15931;SDS011;8065;49.520;11.284;2022-10-31T15:00:23;6.30;;;3.33;;
15931;SDS011;8065;49.520;11.284;2022-10-31T15:02:53;6.17;;;3.03;;
15931;SDS011;8065;49.520;11.284;2022-10-31T15:05:27;7.73;;;3.07;;
15931;SDS011;8065;49.520;11.284;2022-10-31T15:07:55;9.17;;;3.20;;
15931;SDS011;8065;49.520;11.284;2022-10-31T15:10:25;7.67;;;3.20;;
15931;SDS011;8065;49.520;11.284;2022-10-31T15:12:56;7.37;;;2.83;;
15931;SDS011;8065;49.520;11.284;2022-10-31T15:15:34;6.63;;;2.93;;